Time;durP1;ratioP1;P1;durP2;ratioP2;P2;SDS_P1;SDS_P2;PMS_P1;PMS_P2;Temp;Humidity;BMP_temperature;BMP_pressure;BME280_temperature;BME280_humidity;BME280_pressure;Samples;Min_cycle;Max_cycle;Signal;HPM_P1;HPM_P2
2022/02/23 00:00:47;;;;;;;5.78;1.20;;;;;;;;;;5084369;28;20479;-72
2022/02/23 00:03:13;;;;;;;4.07;1.27;;;;;;;;;;5086695;28;20140;-72
2022/02/23 00:05:39;;;;;;;5.03;1.25;;;;;;;;;;5084991;28;20064;-72
2022/02/23 00:08:06;;;;;;;3.00;1.02;;;;;;;;;;5088593;28;20039;-72
2022/02/23 00:10:32;;;;;;;7.35;0.98;;;;;;;;;;5079058;28;20051;-71
2022/02/23 00:12:58;;;;;;;5.47;1.13;;;;;;;;;;5081842;28;20032;-71
2022/02/23 00:15:25;;;;;;;3.67;1.00;;;;;;;;;;5073804;28;20032;-71
2022/02/23 00:17:51;;;;;;;3.58;0.82;;;;;;;;;;5078985;28;20029;-71
2022/02/23 00:20:17;;;;;;;1.85;0.70;;;;;;;;;;5080020;28;20034;-71
2022/02/23 00:22:44;;;;;;;3.00;1.00;;;;;;;;;;5077305;28;20020;-71
2022/02/23 00:25:10;;;;;;;3.45;1.08;;;;;;;;;;5077301;28;20060;-70
2022/02/23 00:27:36;;;;;;;3.17;1.15;;;;;;;;;;5078872;28;20024;-71
2022/02/23 00:30:04;;;;;;;3.15;0.55;;;;;;;;;;5080048;28;20017;-71
2022/02/23 00:32:33;;;;;;;5.70;1.20;;;;;;;;;;5078280;28;20498;-70
2022/02/23 00:34:59;;;;;;;7.05;0.90;;;;;;;;;;5081629;28;20070;-70
2022/02/23 00:37:25;;;;;;;4.13;1.02;;;;;;;;;;5078907;28;20028;-70
2022/02/23 00:39:52;;;;;;;2.10;0.70;;;;;;;;;;5079626;28;20048;-71
2022/02/23 00:42:18;;;;;;;8.02;1.08;;;;;;;;;;5078620;28;20028;-71
2022/02/23 00:44:44;;;;;;;5.20;1.15;;;;;;;;;;5079879;28;20020;-70
2022/02/23 00:47:10;;;;;;;4.68;0.95;;;;;;;;;;5075885;28;20042;-71
2022/02/23 00:49:37;;;;;;;4.28;0.88;;;;;;;;;;5080173;28;20098;-74
2022/02/23 00:52:05;;;;;;;4.28;0.88;;;;;;;;;;5080636;28;20074;-73
2022/02/23 00:54:32;;;;;;;5.22;1.45;;;;;;;;;;5076801;28;20036;-73
2022/02/23 00:56:58;;;;;;;7.05;1.00;;;;;;;;;;5081921;28;20433;-75
2022/02/23 00:59:24;;;;;;;8.93;1.27;;;;;;;;;;5077696;28;20078;-73
2022/02/23 01:01:50;;;;;;;4.18;0.85;;;;;;;;;;5078151;28;20031;-73
2022/02/23 01:04:17;;;;;;;2.05;0.70;;;;;;;;;;5075254;28;20028;-74
2022/02/23 01:06:43;;;;;;;4.47;0.90;;;;;;;;;;5079535;28;20031;-73
2022/02/23 01:09:09;;;;;;;4.93;0.88;;;;;;;;;;5081214;28;20028;-75
2022/02/23 01:11:35;;;;;;;3.75;0.93;;;;;;;;;;5076064;28;20032;-74
2022/02/23 01:14:02;;;;;;;1.80;0.80;;;;;;;;;;5077294;28;20035;-73
2022/02/23 01:16:28;;;;;;;9.35;1.08;;;;;;;;;;5080214;28;20591;-73
2022/02/23 01:18:54;;;;;;;2.80;0.90;;;;;;;;;;5075576;28;20051;-74
2022/02/23 01:21:20;;;;;;;4.90;0.90;;;;;;;;;;5075087;28;20074;-74
2022/02/23 01:23:46;;;;;;;6.43;1.27;;;;;;;;;;5077972;28;20024;-74
2022/02/23 01:26:12;;;;;;;4.38;1.17;;;;;;;;;;5075886;28;20132;-74
2022/02/23 01:28:39;;;;;;;6.50;1.30;;;;;;;;;;5076951;28;20078;-74
2022/02/23 01:31:05;;;;;;;2.63;1.00;;;;;;;;;;5075376;28;20021;-73
2022/02/23 01:33:31;;;;;;;4.50;1.30;;;;;;;;;;5075958;28;20027;-73
2022/02/23 01:35:57;;;;;;;5.32;0.90;;;;;;;;;;5078068;28;20023;-73
2022/02/23 01:38:23;;;;;;;5.85;1.30;;;;;;;;;;5076670;28;20021;-74
2022/02/23 01:40:49;;;;;;;4.07;1.30;;;;;;;;;;5080110;28;20115;-74
2022/02/23 01:43:15;;;;;;;3.13;1.00;;;;;;;;;;5076103;28;20024;-74
2022/02/23 01:45:42;;;;;;;7.00;1.35;;;;;;;;;;5075183;28;20041;-72
2022/02/23 01:48:08;;;;;;;5.90;1.60;;;;;;;;;;5078393;28;20035;-73
2022/02/23 01:50:34;;;;;;;6.80;1.10;;;;;;;;;;5075450;28;20029;-74
2022/02/23 01:53:01;;;;;;;2.78;1.40;;;;;;;;;;5077231;28;20048;-74
2022/02/23 01:55:27;;;;;;;4.18;1.30;;;;;;;;;;5078958;28;20031;-74
2022/02/23 01:57:53;;;;;;;5.93;1.50;;;;;;;;;;5078548;28;20074;-73
2022/02/23 02:00:19;;;;;;;3.75;1.77;;;;;;;;;;5076460;28;20020;-74
2022/02/23 02:02:47;;;;;;;3.80;1.25;;;;;;;;;;5076718;28;20055;-75
2022/02/23 02:05:15;;;;;;;5.20;1.38;;;;;;;;;;5074449;28;20024;-74
2022/02/23 02:07:42;;;;;;;4.45;1.30;;;;;;;;;;5082039;28;20036;-73
2022/02/23 02:10:08;;;;;;;5.03;1.40;;;;;;;;;;5079574;28;20020;-71
2022/02/23 02:12:35;;;;;;;11.20;2.38;;;;;;;;;;5081221;28;20039;-74
2022/02/23 02:15:03;;;;;;;4.47;1.25;;;;;;;;;;5076802;28;20020;-74
2022/02/23 02:17:29;;;;;;;6.20;1.85;;;;;;;;;;5073728;28;20021;-73
2022/02/23 02:19:56;;;;;;;4.68;1.20;;;;;;;;;;5061149;28;20021;-73
2022/02/23 02:22:22;;;;;;;3.80;0.90;;;;;;;;;;5074573;28;20059;-74
2022/02/23 02:24:48;;;;;;;5.40;1.70;;;;;;;;;;5074404;28;20020;-72
2022/02/23 02:27:15;;;;;;;3.97;1.10;;;;;;;;;;5077111;28;20446;-74
2022/02/23 02:29:42;;;;;;;4.40;1.15;;;;;;;;;;5076977;28;20028;-73
2022/02/23 02:32:09;;;;;;;4.53;1.25;;;;;;;;;;5078726;28;20024;-71
2022/02/23 02:34:36;;;;;;;3.72;1.17;;;;;;;;;;5079137;28;20032;-72
2022/02/23 02:37:02;;;;;;;10.32;1.10;;;;;;;;;;5073521;28;20081;-74
2022/02/23 02:39:29;;;;;;;5.35;1.40;;;;;;;;;;5081597;28;20176;-71
2022/02/23 02:41:55;;;;;;;6.00;1.20;;;;;;;;;;5074611;28;20435;-72
2022/02/23 02:44:22;;;;;;;4.00;1.63;;;;;;;;;;5074853;28;20027;-71
2022/02/23 02:46:48;;;;;;;8.65;2.17;;;;;;;;;;5076650;28;20357;-70
2022/02/23 02:49:14;;;;;;;5.10;1.20;;;;;;;;;;5075781;28;20035;-71
2022/02/23 02:51:40;;;;;;;7.03;1.48;;;;;;;;;;5078676;28;20111;-70
2022/02/23 02:54:07;;;;;;;5.80;1.27;;;;;;;;;;5082333;28;20028;-70
2022/02/23 02:56:34;;;;;;;10.73;1.25;;;;;;;;;;5080168;28;20129;-70
2022/02/23 02:59:01;;;;;;;4.10;0.85;;;;;;;;;;5081847;28;20047;-70
2022/02/23 03:01:29;;;;;;;3.00;0.90;;;;;;;;;;5081120;28;20028;-70
2022/02/23 03:03:55;;;;;;;10.32;1.23;;;;;;;;;;5076812;28;20044;-70
2022/02/23 03:06:21;;;;;;;5.97;1.02;;;;;;;;;;5083603;28;20402;-70
2022/02/23 03:08:48;;;;;;;6.75;1.30;;;;;;;;;;5086358;28;20043;-70
2022/02/23 03:11:15;;;;;;;3.35;1.33;;;;;;;;;;5072982;28;20781;-70
2022/02/23 03:13:41;;;;;;;2.30;0.90;;;;;;;;;;5080997;28;20925;-70
2022/02/23 03:16:08;;;;;;;3.50;0.98;;;;;;;;;;5077303;28;20431;-70
2022/02/23 03:18:34;;;;;;;5.20;1.30;;;;;;;;;;5079740;28;20028;-70
2022/02/23 03:21:01;;;;;;;2.40;1.10;;;;;;;;;;5080336;28;20028;-70
2022/02/23 03:23:27;;;;;;;4.38;1.10;;;;;;;;;;5080033;28;20043;-70
2022/02/23 03:25:53;;;;;;;3.38;1.17;;;;;;;;;;5080805;28;20016;-70
2022/02/23 03:28:20;;;;;;;3.85;1.13;;;;;;;;;;5076386;28;20276;-70
2022/02/23 03:30:47;;;;;;;3.63;0.90;;;;;;;;;;5081346;28;20475;-70
2022/02/23 03:33:13;;;;;;;6.03;0.80;;;;;;;;;;5077557;28;20025;-70
2022/02/23 03:35:40;;;;;;;4.25;1.20;;;;;;;;;;5080292;28;20112;-70
2022/02/23 03:38:06;;;;;;;3.25;1.25;;;;;;;;;;5078388;28;20053;-72
2022/02/23 03:40:33;;;;;;;3.60;1.13;;;;;;;;;;5078526;28;20020;-72
2022/02/23 03:42:59;;;;;;;6.13;1.25;;;;;;;;;;5080719;28;20028;-73
2022/02/23 03:45:26;;;;;;;4.95;1.05;;;;;;;;;;5080089;28;20035;-73
2022/02/23 03:47:52;;;;;;;4.88;1.10;;;;;;;;;;5079667;28;20032;-72
2022/02/23 03:50:19;;;;;;;8.00;1.33;;;;;;;;;;5081389;28;20533;-73
2022/02/23 03:52:45;;;;;;;3.80;1.10;;;;;;;;;;5081349;28;20066;-73
2022/02/23 03:55:11;;;;;;;4.03;1.00;;;;;;;;;;5077185;28;20035;-73
2022/02/23 03:57:38;;;;;;;7.10;1.40;;;;;;;;;;5067855;28;20029;-71
2022/02/23 04:00:06;;;;;;;1.70;0.90;;;;;;;;;;5076941;28;20173;-73
2022/02/23 04:02:32;;;;;;;7.38;1.33;;;;;;;;;;5073565;28;20047;-73
2022/02/23 04:04:58;;;;;;;3.58;1.20;;;;;;;;;;5079343;28;20053;-72
2022/02/23 04:07:24;;;;;;;5.60;1.05;;;;;;;;;;5065319;28;20802;-74
2022/02/23 04:09:50;;;;;;;4.22;1.10;;;;;;;;;;5076643;28;20021;-74
2022/02/23 04:12:17;;;;;;;3.67;0.90;;;;;;;;;;5066092;28;20073;-73
2022/02/23 04:14:44;;;;;;;5.47;1.20;;;;;;;;;;5061963;28;20116;-74
2022/02/23 04:17:10;;;;;;;6.40;1.10;;;;;;;;;;5063818;28;20024;-74
2022/02/23 04:19:36;;;;;;;5.65;1.13;;;;;;;;;;5063645;28;20031;-71
2022/02/23 04:22:03;;;;;;;2.10;0.95;;;;;;;;;;5075547;28;20062;-73
2022/02/23 04:24:30;;;;;;;12.98;2.65;;;;;;;;;;5064364;28;20069;-75
2022/02/23 04:26:56;;;;;;;3.40;1.10;;;;;;;;;;5083768;28;20024;-74
2022/02/23 04:29:22;;;;;;;3.33;1.00;;;;;;;;;;5083617;28;20032;-73
2022/02/23 04:31:49;;;;;;;4.25;1.42;;;;;;;;;;5083867;28;20103;-74
2022/02/23 04:34:15;;;;;;;3.70;1.15;;;;;;;;;;5084073;28;20459;-75
2022/02/23 04:36:41;;;;;;;5.45;1.13;;;;;;;;;;5082047;28;20043;-71
2022/02/23 04:39:08;;;;;;;5.60;1.40;;;;;;;;;;5083105;28;20085;-73
2022/02/23 04:41:34;;;;;;;12.02;1.42;;;;;;;;;;5083652;28;20390;-73
2022/02/23 04:44:01;;;;;;;4.32;1.17;;;;;;;;;;5083301;28;20020;-74
2022/02/23 04:46:27;;;;;;;6.15;1.42;;;;;;;;;;5081547;28;20028;-73
2022/02/23 04:48:53;;;;;;;10.20;1.20;;;;;;;;;;5082441;28;20475;-74
2022/02/23 04:51:20;;;;;;;8.38;1.10;;;;;;;;;;5082916;28;20019;-72
2022/02/23 04:53:46;;;;;;;7.68;1.60;;;;;;;;;;5083274;28;20428;-73
2022/02/23 04:56:13;;;;;;;4.28;1.20;;;;;;;;;;5082909;28;20081;-72
2022/02/23 04:58:39;;;;;;;3.70;1.02;;;;;;;;;;5081575;28;20641;-75
2022/02/23 05:01:05;;;;;;;4.65;1.40;;;;;;;;;;5083460;28;20164;-74
2022/02/23 05:03:32;;;;;;;5.80;1.27;;;;;;;;;;5082550;28;20048;-72
2022/02/23 05:05:59;;;;;;;7.55;1.33;;;;;;;;;;5065432;28;20419;-73
2022/02/23 05:08:25;;;;;;;4.25;1.52;;;;;;;;;;5078160;28;20099;-73
2022/02/23 05:10:52;;;;;;;5.30;1.27;;;;;;;;;;5083008;28;20032;-74
2022/02/23 05:13:18;;;;;;;6.30;1.08;;;;;;;;;;5081977;28;20032;-74
2022/02/23 05:15:45;;;;;;;5.75;1.30;;;;;;;;;;5082790;28;20329;-75
2022/02/23 05:18:11;;;;;;;4.05;2.05;;;;;;;;;;5082366;28;20043;-74
2022/02/23 05:20:37;;;;;;;4.03;1.10;;;;;;;;;;5063933;28;20522;-72
2022/02/23 05:23:05;;;;;;;5.30;1.23;;;;;;;;;;5081800;28;20482;-73
2022/02/23 05:25:32;;;;;;;7.63;1.38;;;;;;;;;;5082655;28;20464;-73
2022/02/23 05:27:58;;;;;;;1.75;0.90;;;;;;;;;;5082171;28;20147;-76
2022/02/23 05:30:26;;;;;;;7.55;1.30;;;;;;;;;;5083329;28;20067;-73
2022/02/23 05:32:52;;;;;;;6.03;1.10;;;;;;;;;;5082592;28;20384;-76
2022/02/23 05:35:18;;;;;;;4.28;1.23;;;;;;;;;;5080634;28;20024;-76
2022/02/23 05:37:44;;;;;;;6.85;1.20;;;;;;;;;;5082187;28;20399;-76
2022/02/23 05:40:11;;;;;;;4.25;1.00;;;;;;;;;;5082467;28;20028;-73
2022/02/23 05:42:37;;;;;;;5.85;1.10;;;;;;;;;;5082462;28;20024;-73
2022/02/23 05:45:03;;;;;;;4.13;0.88;;;;;;;;;;5082545;28;20077;-75
2022/02/23 05:47:30;;;;;;;4.30;1.40;;;;;;;;;;5080736;28;20055;-74
2022/02/23 05:49:56;;;;;;;3.60;1.75;;;;;;;;;;5081897;28;20020;-72
2022/02/23 05:52:22;;;;;;;7.90;1.40;;;;;;;;;;5082025;28;20511;-74
2022/02/23 05:54:49;;;;;;;4.65;1.20;;;;;;;;;;5082400;28;20024;-76
2022/02/23 05:57:15;;;;;;;7.53;1.33;;;;;;;;;;5080616;28;20750;-74
2022/02/23 05:59:41;;;;;;;3.45;1.15;;;;;;;;;;5081716;28;20507;-72
2022/02/23 06:02:08;;;;;;;4.53;1.38;;;;;;;;;;5081418;28;20123;-74
2022/02/23 06:04:36;;;;;;;3.80;1.02;;;;;;;;;;5075489;28;20578;-74
2022/02/23 06:07:02;;;;;;;3.78;1.30;;;;;;;;;;5073163;28;20093;-74
2022/02/23 06:09:28;;;;;;;4.55;1.10;;;;;;;;;;5081475;28;20059;-74
2022/02/23 06:11:54;;;;;;;4.15;1.10;;;;;;;;;;5080245;28;20106;-74
2022/02/23 06:14:20;;;;;;;6.28;1.15;;;;;;;;;;5081272;28;20564;-74
2022/02/23 06:16:47;;;;;;;4.22;1.00;;;;;;;;;;5081321;28;20028;-74
2022/02/23 06:19:13;;;;;;;3.85;1.10;;;;;;;;;;5081123;28;20124;-75
2022/02/23 06:21:39;;;;;;;2.53;0.98;;;;;;;;;;5081477;28;20488;-74
2022/02/23 06:24:05;;;;;;;3.60;1.00;;;;;;;;;;5079759;28;20024;-74
2022/02/23 06:26:31;;;;;;;7.43;1.40;;;;;;;;;;5083757;28;20039;-78
2022/02/23 06:28:57;;;;;;;3.22;1.27;;;;;;;;;;5086102;28;20040;-73
2022/02/23 06:31:23;;;;;;;9.57;2.08;;;;;;;;;;5067212;28;20023;-75
2022/02/23 06:33:50;;;;;;;4.18;1.65;;;;;;;;;;5084224;28;20440;-75
2022/02/23 06:36:16;;;;;;;4.03;1.10;;;;;;;;;;5085121;28;20024;-74
2022/02/23 06:38:43;;;;;;;2.92;1.00;;;;;;;;;;5085922;28;20016;-74
2022/02/23 06:41:13;;;;;;;5.32;1.10;;;;;;;;;;5084150;28;20024;-74
2022/02/23 06:43:40;;;;;;;5.53;1.30;;;;;;;;;;5085135;28;20028;-74
2022/02/23 06:46:06;;;;;;;11.48;1.70;;;;;;;;;;5085484;28;20396;-75
2022/02/23 06:48:33;;;;;;;4.93;1.20;;;;;;;;;;5085604;28;20036;-73
2022/02/23 06:50:59;;;;;;;10.25;1.38;;;;;;;;;;5085281;28;20039;-77
2022/02/23 06:53:25;;;;;;;6.57;1.70;;;;;;;;;;5084941;28;20111;-74
2022/02/23 06:55:52;;;;;;;3.67;1.65;;;;;;;;;;5083498;28;20027;-74
2022/02/23 06:58:20;;;;;;;5.25;1.38;;;;;;;;;;5085327;28;20120;-73
2022/02/23 07:00:46;;;;;;;6.07;1.45;;;;;;;;;;5084940;28;20021;-74
2022/02/23 07:03:12;;;;;;;5.90;1.40;;;;;;;;;;5079162;28;20056;-73
2022/02/23 07:05:38;;;;;;;6.40;1.70;;;;;;;;;;5068529;28;20028;-74
2022/02/23 07:08:05;;;;;;;21.38;13.63;;;;;;;;;;5085160;28;20537;-74
2022/02/23 07:10:32;;;;;;;16.33;10.55;;;;;;;;;;5083651;28;20070;-73
2022/02/23 07:13:00;;;;;;;7.07;1.67;;;;;;;;;;5084111;28;20031;-74
2022/02/23 07:15:26;;;;;;;5.78;1.95;;;;;;;;;;5067406;28;20106;-74
2022/02/23 07:17:53;;;;;;;2.88;1.45;;;;;;;;;;5064359;28;20024;-74
2022/02/23 07:20:22;;;;;;;2.67;1.55;;;;;;;;;;5072208;28;20028;-74
2022/02/23 07:22:49;;;;;;;4.82;1.48;;;;;;;;;;5084893;28;20024;-74
2022/02/23 07:25:16;;;;;;;1.98;0.70;;;;;;;;;;5084467;28;20023;-74
2022/02/23 07:27:42;;;;;;;3.55;1.10;;;;;;;;;;5084403;28;20377;-74
2022/02/23 07:30:10;;;;;;;3.72;0.90;;;;;;;;;;5072098;28;20028;-74
2022/02/23 07:32:36;;;;;;;2.60;0.90;;;;;;;;;;5064473;28;20024;-74
2022/02/23 07:35:04;;;;;;;5.95;1.33;;;;;;;;;;5066611;28;20020;-74
2022/02/23 07:37:30;;;;;;;5.45;1.42;;;;;;;;;;5084087;28;20035;-74
2022/02/23 07:40:00;;;;;;;3.78;1.10;;;;;;;;;;5082887;28;20016;-75
2022/02/23 07:42:27;;;;;;;3.30;1.10;;;;;;;;;;5083995;28;20024;-74
2022/02/23 07:44:53;;;;;;;8.13;1.27;;;;;;;;;;5084517;28;20515;-75
2022/02/23 07:47:19;;;;;;;4.93;1.20;;;;;;;;;;5082353;28;20044;-75
2022/02/23 07:49:49;;;;;;;5.15;1.30;;;;;;;;;;5083845;28;20035;-74
2022/02/23 07:52:19;;;;;;;2.35;1.00;;;;;;;;;;5066132;28;20531;-75
2022/02/23 07:54:46;;;;;;;4.20;0.93;;;;;;;;;;5083959;28;20035;-75
2022/02/23 07:57:12;;;;;;;2.38;1.50;;;;;;;;;;5083785;28;20034;-75
2022/02/23 07:59:38;;;;;;;5.30;1.13;;;;;;;;;;5083585;28;20613;-75
2022/02/23 08:02:05;;;;;;;2.25;0.80;;;;;;;;;;5082272;28;20438;-74
2022/02/23 08:04:33;;;;;;;4.03;0.98;;;;;;;;;;5083679;28;20052;-75
2022/02/23 08:06:59;;;;;;;4.53;0.90;;;;;;;;;;5083116;28;20630;-75
2022/02/23 08:09:26;;;;;;;18.40;2.10;;;;;;;;;;5082389;28;20102;-75
2022/02/23 08:11:52;;;;;;;3.03;0.70;;;;;;;;;;5081817;28;20049;-74
2022/02/23 08:14:19;;;;;;;2.45;0.98;;;;;;;;;;5058552;28;20487;-74
2022/02/23 08:19:31;;;;;;;2.78;0.90;;;;;;;;;;5070328;28;20047;-74
2022/02/23 08:21:59;;;;;;;3.67;1.00;;;;;;;;;;5083910;28;20047;-74
2022/02/23 08:24:27;;;;;;;3.78;0.90;;;;;;;;;;5081957;28;20020;-74
2022/02/23 08:26:53;;;;;;;2.70;0.90;;;;;;;;;;5083516;28;20911;-74
2022/02/23 08:29:19;;;;;;;1.65;0.93;;;;;;;;;;5083151;28;20024;-73
2022/02/23 08:31:45;;;;;;;2.03;0.80;;;;;;;;;;5083403;28;20042;-74
2022/02/23 08:34:11;;;;;;;4.40;1.23;;;;;;;;;;5084419;28;20104;-74
2022/02/23 08:36:38;;;;;;;2.17;0.88;;;;;;;;;;5062809;28;20581;-73
2022/02/23 08:39:04;;;;;;;3.30;0.80;;;;;;;;;;5081669;28;20444;-74
2022/02/23 08:41:31;;;;;;;5.13;0.88;;;;;;;;;;5083170;28;20594;-74
2022/02/23 08:43:57;;;;;;;4.07;1.13;;;;;;;;;;5083701;28;20023;-74
2022/02/23 08:46:23;;;;;;;3.40;1.13;;;;;;;;;;5083397;28;20059;-74
2022/02/23 08:48:49;;;;;;;2.80;0.93;;;;;;;;;;5081354;28;20042;-73
2022/02/23 08:51:15;;;;;;;5.80;1.27;;;;;;;;;;5083175;28;20020;-73
2022/02/23 08:53:41;;;;;;;2.97;0.90;;;;;;;;;;5082961;28;20050;-74
2022/02/23 08:56:07;;;;;;;5.80;1.00;;;;;;;;;;5083231;28;20047;-74
2022/02/23 08:58:34;;;;;;;8.32;1.15;;;;;;;;;;5082890;28;20184;-74
2022/02/23 09:01:00;;;;;;;8.45;1.42;;;;;;;;;;5083489;28;20031;-74
2022/02/23 09:03:26;;;;;;;2.72;1.10;;;;;;;;;;5081269;28;20076;-72
2022/02/23 09:05:52;;;;;;;3.33;0.90;;;;;;;;;;5083410;28;20032;-72
2022/02/23 09:08:19;;;;;;;1.60;0.68;;;;;;;;;;5083173;28;20127;-72
2022/02/23 09:10:45;;;;;;;2.80;0.80;;;;;;;;;;5081858;28;20024;-73
2022/02/23 09:13:11;;;;;;;1.95;0.52;;;;;;;;;;5082396;28;20084;-73
2022/02/23 09:15:37;;;;;;;2.22;0.70;;;;;;;;;;5082948;28;20081;-73
2022/02/23 09:18:04;;;;;;;2.08;0.98;;;;;;;;;;5081169;28;20035;-73
2022/02/23 09:20:31;;;;;;;11.55;1.30;;;;;;;;;;5082470;28;20034;-73
2022/02/23 09:22:57;;;;;;;2.20;0.82;;;;;;;;;;5082581;28;20059;-73
2022/02/23 09:25:24;;;;;;;2.70;0.90;;;;;;;;;;5082617;28;20456;-73
2022/02/23 09:27:51;;;;;;;2.75;0.77;;;;;;;;;;5063060;28;20396;-74
2022/02/23 09:30:17;;;;;;;3.60;0.82;;;;;;;;;;5082795;28;20042;-73
2022/02/23 09:32:43;;;;;;;3.33;1.10;;;;;;;;;;5064216;28;20028;-74
2022/02/23 09:35:10;;;;;;;2.90;0.73;;;;;;;;;;5082990;28;20028;-73
2022/02/23 09:37:36;;;;;;;2.85;0.90;;;;;;;;;;5064635;28;20109;-73
2022/02/23 09:40:04;;;;;;;2.97;0.80;;;;;;;;;;5081055;28;20048;-72
2022/02/23 09:42:31;;;;;;;3.90;1.15;;;;;;;;;;5082383;28;20024;-72
2022/02/23 09:45:01;;;;;;;2.63;1.05;;;;;;;;;;5082462;28;20432;-72
2022/02/23 09:47:32;;;;;;;7.95;1.58;;;;;;;;;;5082305;28;20032;-73
2022/02/23 09:49:58;;;;;;;3.75;0.90;;;;;;;;;;5081081;28;20020;-73
2022/02/23 09:52:24;;;;;;;4.45;1.27;;;;;;;;;;5081847;28;20024;-72
2022/02/23 09:54:51;;;;;;;3.65;1.35;;;;;;;;;;5082502;28;20051;-74
2022/02/23 09:57:18;;;;;;;7.82;1.70;;;;;;;;;;5082056;28;20027;-74
2022/02/23 09:59:44;;;;;;;3.45;1.00;;;;;;;;;;5062211;28;20024;-74
2022/02/23 10:02:15;;;;;;;2.40;1.00;;;;;;;;;;5081323;28;20050;-70
2022/02/23 10:04:41;;;;;;;2.63;1.02;;;;;;;;;;5081763;28;20023;-73
2022/02/23 10:07:07;;;;;;;2.80;0.85;;;;;;;;;;5080621;28;20107;-76
2022/02/23 10:09:42;;;;;;;5.10;1.10;;;;;;;;;;5082185;28;20024;-74
2022/02/23 10:12:08;;;;;;;8.43;1.58;;;;;;;;;;5082244;28;20055;-74
2022/02/23 10:14:34;;;;;;;6.63;1.48;;;;;;;;;;5081980;28;20024;-76
2022/02/23 10:17:00;;;;;;;18.17;2.55;;;;;;;;;;5081727;28;20036;-77
2022/02/23 10:19:27;;;;;;;6.70;1.98;;;;;;;;;;5081151;28;20376;-80
2022/02/23 10:21:55;;;;;;;6.78;1.35;;;;;;;;;;5047272;28;20043;-77
2022/02/23 10:24:35;;;;;;;4.20;1.30;;;;;;;;;;5081942;28;20027;-82
2022/02/23 10:27:04;;;;;;;4.65;1.38;;;;;;;;;;5082012;28;20028;-77
2022/02/23 10:29:32;;;;;;;4.18;1.23;;;;;;;;;;5081471;28;20024;-74
2022/02/23 10:32:00;;;;;;;9.52;1.40;;;;;;;;;;5082210;28;20022;-73
2022/02/23 10:34:26;;;;;;;5.55;1.13;;;;;;;;;;5081810;28;20052;-72
2022/02/23 10:37:19;;;;;;;4.53;1.40;;;;;;;;;;5062979;28;20487;-72
2022/02/23 10:39:45;;;;;;;5.95;1.13;;;;;;;;;;5075753;28;20029;-73
2022/02/23 10:42:26;;;;;;;5.53;1.20;;;;;;;;;;5063603;28;20111;-72
2022/02/23 10:44:54;;;;;;;44.38;4.70;;;;;;;;;;5081501;28;20024;-72
2022/02/23 10:47:49;;;;;;;26.48;2.55;;;;;;;;;;5081932;28;20044;-72
2022/02/23 10:50:24;;;;;;;6.35;1.52;;;;;;;;;;5060653;28;20216;-71
2022/02/23 10:52:55;;;;;;;6.47;1.20;;;;;;;;;;5063250;28;20169;-71
2022/02/23 10:55:23;;;;;;;5.35;0.85;;;;;;;;;;5081863;28;20602;-72
2022/02/23 10:57:50;;;;;;;6.03;1.20;;;;;;;;;;5081733;28;20028;-72
2022/02/23 11:00:21;;;;;;;7.75;1.27;;;;;;;;;;5081575;28;20025;-72
2022/02/23 11:02:47;;;;;;;4.45;0.90;;;;;;;;;;5079933;28;20173;-72
2022/02/23 11:05:14;;;;;;;5.68;1.35;;;;;;;;;;5081435;28;20032;-72
2022/02/23 11:07:44;;;;;;;3.83;1.00;;;;;;;;;;5081500;28;20028;-72
2022/02/23 11:10:14;;;;;;;7.18;0.80;;;;;;;;;;5063302;28;20024;-72
2022/02/23 11:12:45;;;;;;;2.83;0.85;;;;;;;;;;5082317;28;20111;-71
2022/02/23 11:15:14;;;;;;;2.72;0.93;;;;;;;;;;5085268;28;20399;-72
2022/02/23 11:17:41;;;;;;;3.38;0.98;;;;;;;;;;5084703;28;20028;-72
2022/02/23 11:20:08;;;;;;;2.20;0.60;;;;;;;;;;5084952;28;20028;-72
2022/02/23 11:22:34;;;;;;;1.92;0.68;;;;;;;;;;5083492;28;20050;-72
2022/02/23 11:25:01;;;;;;;1.85;0.80;;;;;;;;;;5085931;28;20020;-71
2022/02/23 11:27:28;;;;;;;3.30;0.63;;;;;;;;;;5084996;28;20101;-72
2022/02/23 11:30:04;;;;;;;2.20;0.85;;;;;;;;;;5084732;28;20028;-72
2022/02/23 11:32:31;;;;;;;6.68;1.08;;;;;;;;;;5084855;28;20693;-71
2022/02/23 11:34:58;;;;;;;6.03;0.80;;;;;;;;;;5083588;28;20771;-71
2022/02/23 11:37:24;;;;;;;4.15;0.98;;;;;;;;;;5084591;28;20032;-73
2022/02/23 11:39:51;;;;;;;2.60;0.60;;;;;;;;;;5084621;28;20410;-72
2022/02/23 11:42:22;;;;;;;2.58;0.50;;;;;;;;;;5084505;28;20142;-72
2022/02/23 11:44:52;;;;;;;4.15;0.90;;;;;;;;;;5082802;28;20616;-73
2022/02/23 11:47:21;;;;;;;2.75;0.88;;;;;;;;;;5084740;28;20036;-72
2022/02/23 11:49:58;;;;;;;3.63;0.93;;;;;;;;;;5084049;28;20035;-75
2022/02/23 11:52:25;;;;;;;3.00;0.80;;;;;;;;;;5084659;28;20024;-73
2022/02/23 11:55:05;;;;;;;3.20;0.80;;;;;;;;;;5084725;28;20031;-74
2022/02/23 11:57:49;;;;;;;3.03;0.73;;;;;;;;;;5083062;28;20031;-73
2022/02/23 12:00:18;;;;;;;3.50;0.63;;;;;;;;;;5084324;28;20052;-74
2022/02/23 12:02:56;;;;;;;2.42;0.80;;;;;;;;;;5084114;28;20071;-73
2022/02/23 12:05:35;;;;;;;1.77;0.80;;;;;;;;;;5082902;28;20080;-73
2022/02/23 12:08:01;;;;;;;4.28;0.75;;;;;;;;;;5083818;28;20048;-73
2022/02/23 12:10:28;;;;;;;6.55;1.45;;;;;;;;;;5084750;28;20035;-73
2022/02/23 12:12:54;;;;;;;2.67;0.80;;;;;;;;;;5082525;28;20085;-73
2022/02/23 12:15:23;;;;;;;2.72;0.82;;;;;;;;;;5083836;28;20115;-74
2022/02/23 12:17:59;;;;;;;2.92;0.80;;;;;;;;;;5084098;28;20479;-74
2022/02/23 12:20:43;;;;;;;3.75;1.20;;;;;;;;;;5084002;28;20031;-74
2022/02/23 12:23:12;;;;;;;3.67;1.20;;;;;;;;;;5083634;28;20396;-74
2022/02/23 12:25:48;;;;;;;4.63;1.25;;;;;;;;;;5083215;28;20066;-72
2022/02/23 12:28:14;;;;;;;3.10;1.10;;;;;;;;;;5083930;28;20028;-73
2022/02/23 12:30:41;;;;;;;6.07;1.40;;;;;;;;;;5083820;28;20025;-73
2022/02/23 12:33:14;;;;;;;4.13;1.02;;;;;;;;;;5083608;28;20077;-74
2022/02/23 12:35:41;;;;;;;2.85;0.93;;;;;;;;;;5082481;28;20099;-73
2022/02/23 12:38:07;;;;;;;4.60;1.10;;;;;;;;;;5083440;28;20028;-73
2022/02/23 12:40:34;;;;;;;4.50;1.23;;;;;;;;;;5083946;28;20058;-73
2022/02/23 12:43:04;;;;;;;3.17;0.63;;;;;;;;;;5083375;28;20027;-74
2022/02/23 12:45:31;;;;;;;1.23;0.70;;;;;;;;;;5082412;28;20016;-73
2022/02/23 12:48:05;;;;;;;7.53;1.17;;;;;;;;;;5083202;28;20499;-72
2022/02/23 12:50:31;;;;;;;2.70;0.73;;;;;;;;;;5083553;28;20492;-74
2022/02/23 12:52:58;;;;;;;2.47;0.82;;;;;;;;;;5083467;28;20057;-74
2022/02/23 12:55:24;;;;;;;2.50;0.82;;;;;;;;;;5081647;28;20016;-73
2022/02/23 12:57:52;;;;;;;1.63;0.70;;;;;;;;;;5083530;28;20045;-73
2022/02/23 13:00:25;;;;;;;2.72;0.80;;;;;;;;;;5083601;28;20035;-74
2022/02/23 13:02:52;;;;;;;2.03;0.77;;;;;;;;;;5082998;28;20048;-72
2022/02/23 13:05:18;;;;;;;4.72;0.85;;;;;;;;;;5083157;28;20035;-74
2022/02/23 13:07:44;;;;;;;4.07;1.58;;;;;;;;;;5082856;28;20028;-73
2022/02/23 13:10:10;;;;;;;3.65;1.38;;;;;;;;;;5081360;28;20052;-74
2022/02/23 13:12:37;;;;;;;2.67;0.90;;;;;;;;;;5083330;28;20028;-73
2022/02/23 13:15:05;;;;;;;4.05;1.17;;;;;;;;;;5083081;28;20024;-72
2022/02/23 13:17:32;;;;;;;5.85;1.52;;;;;;;;;;5082936;28;20039;-75
2022/02/23 13:19:59;;;;;;;3.10;1.30;;;;;;;;;;5081797;28;20119;-74
2022/02/23 13:22:30;;;;;;;3.40;1.17;;;;;;;;;;5083354;28;20090;-73
2022/02/23 13:24:57;;;;;;;6.83;1.40;;;;;;;;;;5083059;28;20088;-72
2022/02/23 13:27:27;;;;;;;2.72;1.33;;;;;;;;;;5082468;28;20028;-74
2022/02/23 13:29:57;;;;;;;8.00;1.20;;;;;;;;;;5082771;28;20490;-74
2022/02/23 13:32:33;;;;;;;1.80;1.00;;;;;;;;;;5080696;28;20020;-73
2022/02/23 13:35:04;;;;;;;3.45;1.52;;;;;;;;;;5064151;28;20629;-73
2022/02/23 13:37:36;;;;;;;5.95;1.50;;;;;;;;;;5082794;28;20020;-73
2022/02/23 13:40:12;;;;;;;3.92;1.75;;;;;;;;;;5081133;28;20028;-74
2022/02/23 13:42:40;;;;;;;3.33;1.20;;;;;;;;;;5082366;28;20077;-73
2022/02/23 13:45:12;;;;;;;5.00;1.10;;;;;;;;;;5082196;28;20471;-73
2022/02/23 13:47:39;;;;;;;1.95;1.25;;;;;;;;;;5082062;28;20034;-73
2022/02/23 13:50:09;;;;;;;2.65;1.13;;;;;;;;;;5080843;28;20102;-72
2022/02/23 13:52:42;;;;;;;5.20;1.40;;;;;;;;;;5065076;28;20024;-72
2022/02/23 13:55:19;;;;;;;3.92;1.08;;;;;;;;;;5064406;28;20039;-74
2022/02/23 13:57:52;;;;;;;4.80;1.92;;;;;;;;;;5082431;28;20032;-73
2022/02/23 14:00:19;;;;;;;7.18;1.42;;;;;;;;;;5082658;28;20042;-73
2022/02/23 14:02:46;;;;;;;5.97;1.55;;;;;;;;;;5080660;28;20044;-73
2022/02/23 14:05:14;;;;;;;2.80;1.30;;;;;;;;;;5082451;28;20028;-73
2022/02/23 14:07:45;;;;;;;5.75;1.20;;;;;;;;;;5081821;28;20431;-72
2022/02/23 14:10:23;;;;;;;4.28;1.13;;;;;;;;;;5082055;28;20020;-71
2022/02/23 14:12:53;;;;;;;4.18;1.13;;;;;;;;;;5082061;28;20124;-72
2022/02/23 14:15:21;;;;;;;4.35;0.95;;;;;;;;;;5082324;28;20020;-71
2022/02/23 14:17:47;;;;;;;10.02;1.48;;;;;;;;;;5080354;28;20024;-72
2022/02/23 14:20:15;;;;;;;2.72;1.10;;;;;;;;;;5064463;28;20027;-72
2022/02/23 14:22:45;;;;;;;3.50;0.95;;;;;;;;;;5063957;28;20024;-72
2022/02/23 14:25:11;;;;;;;5.65;1.10;;;;;;;;;;5063471;28;20082;-71
2022/02/23 14:27:39;;;;;;;4.35;1.00;;;;;;;;;;5082055;28;20036;-72
2022/02/23 14:30:06;;;;;;;6.70;1.30;;;;;;;;;;5080668;28;20012;-72
2022/02/23 14:32:34;;;;;;;2.63;1.10;;;;;;;;;;5081928;28;20020;-71
2022/02/23 14:35:11;;;;;;;2.92;1.40;;;;;;;;;;5081911;28;20093;-72
2022/02/23 14:37:39;;;;;;;2.00;1.05;;;;;;;;;;5081925;28;20028;-72
2022/02/23 14:40:07;;;;;;;4.85;1.45;;;;;;;;;;5082046;28;20633;-71
2022/02/23 14:42:33;;;;;;;2.80;1.00;;;;;;;;;;5062278;28;20471;-71
2022/02/23 14:44:59;;;;;;;5.80;1.30;;;;;;;;;;5081856;28;20411;-72
2022/02/23 14:47:26;;;;;;;2.10;0.80;;;;;;;;;;5083288;28;20094;-72